Time,TemperatureF,DewpointF,PressureIn,WindDirection,WindDirectionDegrees,WindSpeedMPH,WindSpeedGustMPH,Humidity,HourlyPrecipIn,Conditions,Clouds,dailyrainin,SoftwareType,DateUTC
2013-03-28 05:22:00,33.8,27.1,30.16,West,270,3.1,-999.0,76,-99.99,,,0.00,Acu-Link.com,2013-03-28 09:22:00,
2013-03-28 05:37:00,33.8,27.4,30.17,WNW,292,0.0,-999.0,77,-99.99,,,0.00,Acu-Link.com,2013-03-28 09:37:00,
2013-03-28 05:52:00,33.8,27.4,30.16,WNW,292,0.0,-999.0,77,-99.99,,,0.00,Acu-Link.com,2013-03-28 09:52:00,
2013-03-28 06:07:00,33.8,27.4,30.17,WNW,292,0.0,-999.0,77,-99.99,,,0.00,Acu-Link.com,2013-03-28 10:07:00,
2013-03-28 06:23:00,33.8,27.4,30.17,WNW,292,0.0,-999.0,77,-99.99,,,0.00,Acu-Link.com,2013-03-28 10:23:00,
2013-03-28 16:24:00,44.6,33.2,30.23,West,270,3.6,-999.0,64,-99.99,,,0.00,Acu-Link.com,2013-03-28 20:24:00,
2013-03-28 16:39:00,42.8,30.7,30.23,WNW,292,2.7,-999.0,62,-99.99,,,0.00,Acu-Link.com,2013-03-28 20:39:00,
2013-03-28 16:54:00,42.8,29.9,30.23,West,270,1.6,-999.0,60,-99.99,,,0.00,Acu-Link.com,2013-03-28 20:54:00,
2013-03-28 17:09:00,44.6,31.6,30.23,ENE,67,2.7,-999.0,60,-99.99,,,0.00,Acu-Link.com,2013-03-28 21:09:00,
2013-03-28 17:25:00,44.6,31.6,30.23,North,0,3.6,-999.0,60,-99.99,,,0.00,Acu-Link.com,2013-03-28 21:25:00,
2013-03-28 17:40:00,44.6,31.6,30.23,North,0,3.6,-999.0,60,-99.99,,,0.00,Acu-Link.com,2013-03-28 21:40:00,
2013-03-28 17:55:00,44.6,31.6,30.23,North,0,3.6,-999.0,60,-99.99,,,0.00,Acu-Link.com,2013-03-28 21:55:00,
2013-03-28 18:10:00,44.6,31.6,30.23,North,0,3.6,-999.0,60,-99.99,,,0.00,Acu-Link.com,2013-03-28 22:10:00,
2013-03-28 18:55:00,42.8,31.1,30.24,WNW,292,1.6,-999.0,63,-99.99,,,0.00,Acu-Link.com,2013-03-28 22:55:00,
2013-03-28 19:26:00,42.8,31.9,30.24,NW,315,0.0,-999.0,65,-99.99,,,0.00,Acu-Link.com,2013-03-28 23:26:00,
2013-03-28 19:41:00,41.0,30.2,30.24,West,270,0.0,-999.0,65,-99.99,,,0.00,Acu-Link.com,2013-03-28 23:41:00,
2013-03-28 19:57:00,41.0,30.5,30.24,SSE,157,0.0,-999.0,66,-99.99,,,0.00,Acu-Link.com,2013-03-28 23:57:00,
2013-03-28 20:12:00,41.0,30.5,30.24,SSE,157,0.0,-999.0,66,-99.99,,,0.00,Acu-Link.com,2013-03-29 00:12:00,
2013-03-28 20:27:00,41.0,32.3,30.24,SSE,157,0.0,-999.0,71,-99.99,,,0.00,Acu-Link.com,2013-03-29 00:27:00,
2013-03-28 20:42:00,39.2,29.9,30.24,SSE,157,0.0,-999.0,69,-99.99,,,0.00,Acu-Link.com,2013-03-29 00:42:00,
2013-03-28 20:58:00,39.2,30.6,30.24,SSE,157,0.0,-999.0,71,-99.99,,,0.00,Acu-Link.com,2013-03-29 00:58:00,
2013-03-28 21:13:00,39.2,30.9,30.24,SSE,157,0.0,-999.0,72,-99.99,,,0.00,Acu-Link.com,2013-03-29 01:13:00,
2013-03-28 21:28:00,37.4,29.2,30.24,SSE,157,0.0,-999.0,72,-99.99,,,0.00,Acu-Link.com,2013-03-29 01:28:00,
2013-03-28 21:43:00,37.4,29.2,30.24,SSE,157,0.0,-999.0,72,-99.99,,,0.00,Acu-Link.com,2013-03-29 01:43:00,
2013-03-28 21:58:00,37.4,29.9,30.24,SSE,157,0.0,-999.0,74,-99.99,,,0.00,Acu-Link.com,2013-03-29 01:58:00,
2013-03-28 22:14:00,37.4,30.9,30.25,SSE,157,0.0,-999.0,77,-99.99,,,0.00,Acu-Link.com,2013-03-29 02:14:00,
2013-03-28 22:29:00,37.4,31.2,30.25,SSE,157,0.0,-999.0,78,-99.99,,,0.00,Acu-Link.com,2013-03-29 02:29:00,
2013-03-28 22:44:00,37.4,30.9,30.24,SSE,157,0.0,-999.0,77,-99.99,,,0.00,Acu-Link.com,2013-03-29 02:44:00,
2013-03-28 22:59:00,37.4,31.2,30.25,SSE,157,0.0,-999.0,78,-99.99,,,0.00,Acu-Link.com,2013-03-29 02:59:00,
2013-03-28 23:14:00,37.4,31.2,30.25,East,90,0.0,-999.0,78,-99.99,,,0.00,Acu-Link.com,2013-03-29 03:14:00,
2013-03-28 23:29:00,37.4,31.2,30.25,SE,135,0.0,-999.0,78,-99.99,,,0.00,Acu-Link.com,2013-03-29 03:29:00,
2013-03-28 23:44:00,35.6,29.4,30.25,ESE,112,0.0,-999.0,78,-99.99,,,0.00,Acu-Link.com,2013-03-29 03:44:00,